Main page
METAR-TAF:

METAR-TAF

Airports :

Shannon Airport

Shannon, Ireland

latitude: 52-42N, longitude: 008-55W, elevation: 14 m

Current weather observation

The report was made 36 minutes ago, at 20:00 UTC
Wind 10 kt from the Northeast
Temperature 9°C
Humidity 57%
Pressure 1039 hPa
Visibility 10 km or more
Broken clouds at a height of 5000 ft

METAR: EINN 282000Z 05010KT 9999 BKN050 09/01 Q1039 NOSIG

Time: 20:36 (20:36 UTC)

Forecast

The report was made 3 hours and 36 minutes ago, at 17:00 UTC
Forecast valid from 28 at 18 UTC to 29 at 18 UTC
Wind 15 kt from the Northeast
Visibility 10 km or more
Few clouds at a height of 2500 ft
Broken clouds at a height of 4200 ft
Probability 30% :
Temporary
from 28 at 18 UTC to 28 at 20 UTC
Wind 17 kt from the Northeast with gusts up to 27 kt
Probability 40% :
Temporary
from 29 at 12 UTC to 29 at 16 UTC
Wind 15 kt from the Northeast with gusts up to 26 kt

TAF: EINN 281700Z 2818/2918 05015KT 9999 FEW025 BKN042 PROB30 TEMPO 2818/2820 04017G27KT PROB40 TEMPO 2912/2916 04015G26KT

Weather observations and forecasts of more than 4000 airports (METAR and TAF reports).

The available stations are represented by yellow and red dots on the map.

Hover mouse over dot to see the name of the station.

Then click to see weather observations and forecasts.

To change the map : click on the green buttons with a black cross to zoom in, on the green button with a dash to zoom out, or on the green arrows for adjacent maps.


METAR-TAF: